createdAt,value
2023-02-28T00:01:20.986Z,3.80
2023-02-28T00:03:50.641Z,3.90
2023-02-28T00:06:21.870Z,3.85
2023-02-28T00:08:51.924Z,4.15
2023-02-28T00:11:24.131Z,4.10
2023-02-28T00:13:53.727Z,3.85
2023-02-28T00:16:25.289Z,3.90
2023-02-28T00:18:54.926Z,3.80
2023-02-28T00:21:25.218Z,4.53
2023-02-28T00:23:55.408Z,4.45
2023-02-28T00:26:27.574Z,3.90
2023-02-28T00:28:57.189Z,3.88
2023-02-28T00:31:27.052Z,3.97
2023-02-28T00:33:56.792Z,3.95
2023-02-28T00:36:26.359Z,3.83
2023-02-28T00:38:56.415Z,4.38
2023-02-28T00:41:28.988Z,4.10
2023-02-28T00:43:58.819Z,4.45
2023-02-28T00:46:28.454Z,3.90
2023-02-28T00:48:58.294Z,4.35
2023-02-28T00:51:28.293Z,4.15
2023-02-28T00:54:00.677Z,4.07
2023-02-28T00:56:32.850Z,4.15
2023-02-28T00:59:02.841Z,4.47
2023-02-28T01:01:32.669Z,4.10
2023-02-28T01:04:02.494Z,4.75
2023-02-28T01:06:32.606Z,4.25
2023-02-28T01:09:02.214Z,4.28
2023-02-28T01:11:35.538Z,4.38
2023-02-28T01:14:05.597Z,4.72
2023-02-28T01:16:35.223Z,4.90
2023-02-28T01:19:06.260Z,4.53
2023-02-28T01:21:35.943Z,4.47
2023-02-28T01:24:06.161Z,4.07
2023-02-28T01:26:38.416Z,4.70
2023-02-28T01:29:10.588Z,4.40
2023-02-28T01:31:40.547Z,4.70
2023-02-28T01:34:11.630Z,4.88
2023-02-28T01:36:41.691Z,5.20
2023-02-28T01:39:11.297Z,4.40
2023-02-28T01:41:44.188Z,4.70
2023-02-28T01:44:43.644Z,4.15
2023-02-28T01:47:13.324Z,4.80
2023-02-28T01:49:43.417Z,5.05
2023-02-28T01:52:19.161Z,4.70
2023-02-28T01:54:52.010Z,4.80
2023-02-28T01:57:26.494Z,4.88
2023-02-28T02:00:00.210Z,5.30
2023-02-28T02:02:31.046Z,5.10
2023-02-28T02:05:04.762Z,4.80
2023-02-28T02:07:36.400Z,4.97
2023-02-28T02:10:09.915Z,5.30
2023-02-28T02:12:54.358Z,5.28
2023-02-28T02:15:28.019Z,5.10
2023-02-28T02:18:00.818Z,5.15
2023-02-28T02:21:04.084Z,5.15
2023-02-28T02:23:53.240Z,4.97
2023-02-28T02:26:48.444Z,5.30
2023-02-28T02:29:42.610Z,5.28
2023-02-28T02:32:38.075Z,5.60
2023-02-28T02:35:16.939Z,5.30
2023-02-28T02:37:52.348Z,5.10
2023-02-28T02:40:24.009Z,5.15
2023-02-28T02:42:58.346Z,5.32
2023-02-28T02:45:36.372Z,5.53
2023-02-28T02:48:07.775Z,5.57
2023-02-28T02:50:42.663Z,5.20
2023-02-28T02:53:13.016Z,5.38
2023-02-28T02:55:45.234Z,5.38
2023-02-28T02:58:18.802Z,5.43
2023-02-28T03:00:51.758Z,5.57
2023-02-28T03:03:30.060Z,5.97
2023-02-28T03:06:04.199Z,5.95
2023-02-28T03:08:38.754Z,6.20
2023-02-28T03:11:13.297Z,6.35
2023-02-28T03:13:56.089Z,5.88
2023-02-28T03:16:33.933Z,5.93
2023-02-28T03:19:12.694Z,6.10
2023-02-28T03:21:48.878Z,5.82
2023-02-28T03:24:23.177Z,6.30
2023-02-28T03:27:01.596Z,6.40
2023-02-28T03:29:36.253Z,6.30
2023-02-28T03:32:12.464Z,6.97
2023-02-28T03:34:43.864Z,6.88
2023-02-28T03:37:18.747Z,6.50
2023-02-28T03:39:51.473Z,6.53
2023-02-28T03:42:23.749Z,6.50
2023-02-28T03:44:56.107Z,6.53
2023-02-28T03:47:28.797Z,6.60
2023-02-28T03:50:01.014Z,5.80
2023-02-28T03:52:37.431Z,5.70
2023-02-28T03:55:10.744Z,6.20
2023-02-28T03:57:44.159Z,5.07
2023-02-28T04:00:16.662Z,5.32
2023-02-28T04:02:46.346Z,5.28
2023-02-28T04:05:15.977Z,4.78
2023-02-28T04:07:49.271Z,4.75
2023-02-28T04:10:19.597Z,5.00
2023-02-28T04:12:49.254Z,4.30
2023-02-28T04:15:18.937Z,4.25
2023-02-28T04:17:48.558Z,4.38
2023-02-28T04:20:18.179Z,4.35
2023-02-28T04:22:50.778Z,4.50
2023-02-28T04:25:20.514Z,4.30
2023-02-28T04:27:50.108Z,4.40
2023-02-28T04:30:20.532Z,4.40
2023-02-28T04:32:50.442Z,4.55
2023-02-28T04:35:20.032Z,4.20
2023-02-28T04:37:52.228Z,4.15
2023-02-28T04:40:21.912Z,4.97
2023-02-28T04:42:51.523Z,4.03
2023-02-28T04:45:21.096Z,4.18
2023-02-28T04:47:50.728Z,4.10
2023-02-28T04:50:20.368Z,4.18
2023-02-28T04:52:52.562Z,4.03
2023-02-28T04:55:22.132Z,4.38
2023-02-28T04:57:51.731Z,4.20
2023-02-28T05:00:22.173Z,4.20
2023-02-28T05:02:51.780Z,4.15
2023-02-28T05:05:22.235Z,4.45
2023-02-28T05:07:54.829Z,4.93
2023-02-28T05:10:24.621Z,4.60
2023-02-28T05:12:54.283Z,4.43
2023-02-28T05:15:23.900Z,4.60
2023-02-28T05:17:53.552Z,4.28
2023-02-28T05:20:23.209Z,4.18
2023-02-28T05:22:55.613Z,6.50
2023-02-28T05:25:25.698Z,4.43
2023-02-28T05:27:55.295Z,4.40
2023-02-28T05:30:24.892Z,4.70
2023-02-28T05:32:55.410Z,4.03
2023-02-28T05:35:25.138Z,4.22
2023-02-28T05:37:57.369Z,4.47
2023-02-28T05:40:26.987Z,4.60
2023-02-28T05:42:56.593Z,4.57
2023-02-28T05:45:26.195Z,4.55
2023-02-28T05:47:57.798Z,4.82
2023-02-28T05:50:27.387Z,4.47
2023-02-28T05:52:59.609Z,4.10
2023-02-28T05:55:29.218Z,4.57
2023-02-28T05:57:59.110Z,4.43
2023-02-28T06:00:28.939Z,5.20
2023-02-28T06:03:01.049Z,4.80
2023-02-28T06:05:30.922Z,4.80
2023-02-28T06:08:03.106Z,4.72
2023-02-28T06:10:32.685Z,4.70
2023-02-28T06:13:03.513Z,4.60
2023-02-28T06:15:33.672Z,4.82
2023-02-28T06:18:03.557Z,4.55
2023-02-28T06:20:33.142Z,4.28
2023-02-28T06:23:05.371Z,4.35
2023-02-28T06:25:35.093Z,4.68
2023-02-28T06:28:04.891Z,4.80
2023-02-28T06:30:34.811Z,5.10
2023-02-28T06:33:04.766Z,4.82
2023-02-28T06:35:36.347Z,4.88
2023-02-28T06:38:08.669Z,5.22
2023-02-28T06:40:38.262Z,5.82
2023-02-28T06:43:08.029Z,6.30
2023-02-28T06:45:37.770Z,5.32
2023-02-28T06:48:07.953Z,5.35
2023-02-28T06:50:37.564Z,5.38
2023-02-28T06:53:09.797Z,5.05
2023-02-28T06:55:41.680Z,4.80
2023-02-28T06:58:15.714Z,5.30
2023-02-28T07:00:45.430Z,5.10
2023-02-28T07:03:16.424Z,4.65
2023-02-28T07:05:46.346Z,4.47
2023-02-28T07:08:18.630Z,4.35
2023-02-28T07:10:48.214Z,4.57
2023-02-28T07:13:17.788Z,4.40
2023-02-28T07:15:47.452Z,4.45
2023-02-28T07:18:17.063Z,4.40
2023-02-28T07:20:46.649Z,3.80
2023-02-28T07:23:18.864Z,3.95
2023-02-28T07:25:49.295Z,4.00
2023-02-28T07:28:18.898Z,3.45
2023-02-28T07:30:49.218Z,3.53
2023-02-28T07:33:19.034Z,3.63
2023-02-28T07:35:48.872Z,3.40
2023-02-28T07:38:21.096Z,3.10
2023-02-28T07:40:50.821Z,3.45
2023-02-28T07:43:20.406Z,3.00
2023-02-28T07:45:50.218Z,3.10
2023-02-28T07:48:19.809Z,3.00
2023-02-28T07:50:58.846Z,2.90
2023-02-28T07:53:31.653Z,3.10
2023-02-28T07:56:01.866Z,3.22
2023-02-28T07:58:32.044Z,3.22
2023-02-28T08:01:09.099Z,3.40
2023-02-28T08:03:39.273Z,3.33
2023-02-28T08:06:11.220Z,3.50
2023-02-28T08:08:43.376Z,3.13
2023-02-28T08:11:12.963Z,3.40
2023-02-28T08:13:43.406Z,3.35
2023-02-28T08:16:15.475Z,3.72
2023-02-28T08:18:45.184Z,3.42
2023-02-28T08:21:15.167Z,3.40
2023-02-28T08:23:47.397Z,2.97
2023-02-28T08:26:17.199Z,3.30
2023-02-28T08:28:46.876Z,3.08
2023-02-28T08:31:18.374Z,3.33
2023-02-28T08:33:49.676Z,3.35
2023-02-28T08:36:19.494Z,3.15
2023-02-28T08:38:51.694Z,2.97
2023-02-28T08:41:22.223Z,2.90
2023-02-28T08:43:51.833Z,3.00
2023-02-28T08:46:21.590Z,2.83
2023-02-28T08:48:51.160Z,3.28
2023-02-28T08:51:27.226Z,2.85
2023-02-28T08:54:02.035Z,2.97
2023-02-28T08:56:32.254Z,2.80
2023-02-28T08:59:01.907Z,3.10
2023-02-28T09:01:33.276Z,3.05
2023-02-28T09:04:03.460Z,2.80
2023-02-28T09:06:33.164Z,2.90
2023-02-28T09:09:07.409Z,3.00
2023-02-28T09:11:37.444Z,2.63
2023-02-28T09:14:07.362Z,2.78
2023-02-28T09:16:37.827Z,2.50
2023-02-28T09:19:07.632Z,2.67
2023-02-28T09:21:37.193Z,2.60
2023-02-28T09:24:10.233Z,2.85
2023-02-28T09:26:47.280Z,2.55
2023-02-28T09:29:25.348Z,2.60
2023-02-28T09:31:54.967Z,2.50
2023-02-28T09:34:24.697Z,2.47
2023-02-28T09:36:55.623Z,2.70
2023-02-28T09:39:29.784Z,2.35
2023-02-28T09:44:33.244Z,2.70
2023-02-28T09:47:05.498Z,2.95
2023-02-28T09:49:41.727Z,2.53
2023-02-28T09:52:14.867Z,2.63
2023-02-28T09:54:47.065Z,2.80
2023-02-28T09:57:21.753Z,2.63
2023-02-28T10:00:10.824Z,2.53
2023-02-28T10:02:59.228Z,3.00
2023-02-28T10:05:32.646Z,2.60
2023-02-28T10:08:09.779Z,2.60
2023-02-28T10:10:44.629Z,2.70
2023-02-28T10:13:24.145Z,2.95
2023-02-28T10:15:58.094Z,2.65
2023-02-28T10:18:31.109Z,3.05
2023-02-28T10:21:01.808Z,2.80
2023-02-28T10:23:34.640Z,3.10
2023-02-28T10:26:14.140Z,2.90
2023-02-28T10:28:44.317Z,2.70
2023-02-28T10:31:15.835Z,3.38
2023-02-28T10:33:45.453Z,2.85
2023-02-28T10:36:18.468Z,2.97
2023-02-28T10:38:49.300Z,3.30
2023-02-28T10:41:35.641Z,3.20
2023-02-28T10:44:24.395Z,3.28
2023-02-28T10:46:54.671Z,3.47
2023-02-28T10:49:26.493Z,3.10
2023-02-28T10:51:58.160Z,3.40
2023-02-28T10:54:31.753Z,3.55
2023-02-28T10:57:16.412Z,3.00
2023-02-28T10:59:46.069Z,3.33
2023-02-28T11:05:32.264Z,3.38
2023-02-28T11:08:08.261Z,3.20
2023-02-28T11:10:38.228Z,3.08
2023-02-28T11:13:10.446Z,3.20
2023-02-28T11:15:40.477Z,3.50
2023-02-28T11:18:23.640Z,3.70
2023-02-28T11:20:54.085Z,3.10
2023-02-28T11:23:24.420Z,3.10
2023-02-28T11:25:58.074Z,3.35
2023-02-28T11:28:33.560Z,3.17
2023-02-28T11:31:10.290Z,3.53
2023-02-28T11:33:46.108Z,3.40
2023-02-28T11:36:20.224Z,3.20
2023-02-28T11:38:51.623Z,2.75
2023-02-28T11:41:45.152Z,3.72
2023-02-28T11:44:34.852Z,3.63
2023-02-28T11:47:08.601Z,3.70
2023-02-28T11:49:43.275Z,3.28
2023-02-28T11:52:24.342Z,3.65
2023-02-28T11:55:07.437Z,3.60
2023-02-28T11:57:42.928Z,3.47
2023-02-28T12:00:29.232Z,3.30
2023-02-28T12:03:08.794Z,3.10
2023-02-28T12:05:44.962Z,3.95
2023-02-28T12:08:27.261Z,3.60
2023-02-28T12:11:04.881Z,3.20
2023-02-28T12:13:44.532Z,3.53
2023-02-28T12:16:50.440Z,3.60
2023-02-28T12:19:24.024Z,3.70
2023-02-28T12:22:14.344Z,3.40
2023-02-28T12:25:02.481Z,3.55
2023-02-28T12:27:34.557Z,3.40
2023-02-28T12:30:08.195Z,3.13
2023-02-28T12:32:42.512Z,3.47
2023-02-28T12:35:17.006Z,2.85
2023-02-28T12:37:49.529Z,3.17
2023-02-28T12:40:22.114Z,3.35
2023-02-28T12:42:56.142Z,3.83
2023-02-28T12:45:27.875Z,3.70
2023-02-28T12:48:03.989Z,3.45
2023-02-28T12:50:33.746Z,3.60
2023-02-28T12:53:06.472Z,3.13
2023-02-28T12:55:39.775Z,2.90
2023-02-28T12:58:15.316Z,3.03
2023-02-28T13:01:08.207Z,3.33
2023-02-28T13:03:53.703Z,2.80
2023-02-28T13:06:42.010Z,3.50
2023-02-28T13:09:16.599Z,3.28
2023-02-28T13:11:48.571Z,3.22
2023-02-28T13:14:31.416Z,3.45
2023-02-28T13:17:07.390Z,3.30
2023-02-28T13:19:41.127Z,3.30
2023-02-28T13:22:20.834Z,3.42
2023-02-28T13:24:52.710Z,2.88
2023-02-28T13:27:41.445Z,3.30
2023-02-28T13:30:41.175Z,3.20
2023-02-28T13:33:27.338Z,3.30
2023-02-28T13:36:15.399Z,3.63
2023-02-28T13:38:46.377Z,3.78
2023-02-28T13:41:49.693Z,3.10
2023-02-28T13:44:24.364Z,3.78
2023-02-28T13:47:25.612Z,3.80
2023-02-28T13:49:56.432Z,3.35
2023-02-28T13:52:29.140Z,3.17
2023-02-28T13:55:29.056Z,3.60
2023-02-28T13:58:16.068Z,3.40
2023-02-28T14:01:04.112Z,3.60
2023-02-28T14:03:47.009Z,3.47
2023-02-28T14:06:24.578Z,3.67
2023-02-28T14:09:01.177Z,3.63
2023-02-28T14:11:36.365Z,3.40
2023-02-28T14:14:07.195Z,3.60
2023-02-28T14:16:43.795Z,3.40
2023-02-28T14:19:16.920Z,3.40
2023-02-28T14:22:00.196Z,3.40
2023-02-28T14:24:54.764Z,3.70
2023-02-28T14:27:47.551Z,3.50
2023-02-28T14:30:34.412Z,3.53
2023-02-28T14:33:15.220Z,3.80
2023-02-28T14:35:54.269Z,4.15
2023-02-28T14:38:28.892Z,4.00
2023-02-28T14:41:02.535Z,4.60
2023-02-28T14:43:33.187Z,3.67
2023-02-28T14:46:04.876Z,3.75
2023-02-28T14:48:34.629Z,3.90
2023-02-28T14:51:05.713Z,3.97
2023-02-28T14:53:41.526Z,3.70
2023-02-28T14:56:26.032Z,3.83
2023-02-28T15:01:27.771Z,3.30
2023-02-28T15:04:06.455Z,3.50
2023-02-28T15:06:36.784Z,4.32
2023-02-28T15:09:14.608Z,4.00
2023-02-28T15:11:50.620Z,4.28
2023-02-28T15:14:23.567Z,3.60
2023-02-28T15:16:56.599Z,3.70
2023-02-28T15:19:28.178Z,3.78
2023-02-28T15:22:00.383Z,3.90
2023-02-28T15:24:35.310Z,3.67
2023-02-28T15:27:09.528Z,3.75
2023-02-28T15:32:11.759Z,3.70
2023-02-28T15:34:44.242Z,3.97
2023-02-28T15:37:39.725Z,4.40
2023-02-28T15:40:16.607Z,4.18
2023-02-28T15:43:02.300Z,4.28
2023-02-28T15:45:38.485Z,3.97
2023-02-28T15:48:14.111Z,4.00
2023-02-28T15:50:44.321Z,3.83
2023-02-28T15:53:19.446Z,4.00
2023-02-28T15:55:49.342Z,3.90
2023-02-28T15:58:22.235Z,4.45
2023-02-28T16:01:04.776Z,4.13
2023-02-28T16:03:42.668Z,4.18
2023-02-28T16:06:43.221Z,4.13
2023-02-28T16:09:15.370Z,3.97
2023-02-28T16:11:47.555Z,4.18
2023-02-28T16:14:21.677Z,4.35
2023-02-28T16:16:53.176Z,4.30
2023-02-28T16:19:22.856Z,6.43
2023-02-28T16:21:52.707Z,4.85
2023-02-28T16:24:22.300Z,4.45
2023-02-28T16:26:52.954Z,4.53
2023-02-28T16:29:28.865Z,4.43
2023-02-28T16:31:58.635Z,4.28
2023-02-28T16:34:28.534Z,4.50
2023-02-28T16:36:58.323Z,5.00
2023-02-28T16:39:28.040Z,4.80
2023-02-28T16:41:57.611Z,5.03
2023-02-28T16:44:31.750Z,8.95
2023-02-28T16:47:03.914Z,5.22
2023-02-28T16:49:33.939Z,5.10
2023-02-28T16:52:03.589Z,4.97
2023-02-28T16:54:33.388Z,4.95
2023-02-28T16:57:03.103Z,5.30
2023-02-28T16:59:35.679Z,5.35
2023-02-28T17:02:05.757Z,4.65
2023-02-28T17:04:35.621Z,5.05
2023-02-28T17:07:05.183Z,5.28
2023-02-28T17:09:42.168Z,4.63
2023-02-28T17:12:12.401Z,5.40
2023-02-28T17:14:44.609Z,5.18
2023-02-28T17:17:19.881Z,5.03
2023-02-28T17:19:49.551Z,5.03
2023-02-28T17:22:19.558Z,5.57
2023-02-28T17:24:49.172Z,6.18
2023-02-28T17:27:18.732Z,5.30
2023-02-28T17:29:50.946Z,5.05
2023-02-28T17:32:20.571Z,5.75
2023-02-28T17:34:50.192Z,5.43
2023-02-28T17:37:19.820Z,5.70
2023-02-28T17:39:49.448Z,5.07
2023-02-28T17:42:20.280Z,7.32
2023-02-28T17:44:52.900Z,5.30
2023-02-28T17:47:22.487Z,5.43
2023-02-28T17:49:52.326Z,6.20
2023-02-28T17:52:23.196Z,5.75
2023-02-28T17:54:52.750Z,5.38
2023-02-28T17:57:22.442Z,5.63
2023-02-28T17:59:54.576Z,6.25
2023-02-28T18:02:24.274Z,6.40
2023-02-28T18:04:53.899Z,6.20
2023-02-28T18:07:25.976Z,5.50
2023-02-28T18:09:55.844Z,5.70
2023-02-28T18:12:25.419Z,6.20
2023-02-28T18:14:57.564Z,6.15
2023-02-28T18:17:27.432Z,6.38
2023-02-28T18:19:56.933Z,5.63
2023-02-28T18:22:26.535Z,6.82
2023-02-28T18:24:56.068Z,5.85
2023-02-28T18:27:25.662Z,5.78
2023-02-28T18:29:57.838Z,6.15
2023-02-28T18:32:27.680Z,5.88
2023-02-28T18:34:57.640Z,6.15
2023-02-28T18:37:27.964Z,6.20
2023-02-28T18:39:57.528Z,6.05
2023-02-28T18:42:27.051Z,7.90
2023-02-28T18:44:59.542Z,6.70
2023-02-28T18:47:29.128Z,6.80
2023-02-28T18:50:00.289Z,7.15
2023-02-28T18:52:30.433Z,6.40
2023-02-28T18:54:59.973Z,7.60
2023-02-28T18:57:29.552Z,7.10
2023-02-28T19:00:01.902Z,6.68
2023-02-28T19:02:31.463Z,9.05
2023-02-28T19:05:01.034Z,11.30
2023-02-28T19:07:30.560Z,7.50
2023-02-28T19:10:00.102Z,7.57
2023-02-28T19:12:29.668Z,7.40
2023-02-28T19:15:01.802Z,7.13
2023-02-28T19:17:31.659Z,8.88
2023-02-28T19:20:01.213Z,8.85
2023-02-28T19:22:30.849Z,8.52
2023-02-28T19:25:00.505Z,8.52
2023-02-28T19:27:30.052Z,7.30
2023-02-28T19:30:02.951Z,8.10
2023-02-28T19:32:32.624Z,8.18
2023-02-28T19:35:02.724Z,7.90
2023-02-28T19:37:32.328Z,8.00
2023-02-28T19:40:02.455Z,8.18
2023-02-28T19:42:33.291Z,8.57
2023-02-28T19:45:06.814Z,8.18
2023-02-28T19:47:36.522Z,9.13
2023-02-28T19:50:06.459Z,8.75
2023-02-28T19:52:36.045Z,8.57
2023-02-28T19:55:05.802Z,8.50
2023-02-28T19:57:35.935Z,9.13
2023-02-28T20:00:09.570Z,10.30
2023-02-28T20:02:45.606Z,8.95
2023-02-28T20:05:15.193Z,8.02
2023-02-28T20:07:45.022Z,8.82
2023-02-28T20:10:15.397Z,9.35
2023-02-28T20:12:45.076Z,8.50
2023-02-28T20:15:17.932Z,9.32
2023-02-28T20:17:47.497Z,8.02
2023-02-28T20:20:17.282Z,7.88
2023-02-28T20:22:46.835Z,9.57
2023-02-28T20:25:17.057Z,8.77
2023-02-28T20:27:46.817Z,8.48
2023-02-28T20:30:22.095Z,8.10
2023-02-28T20:32:52.110Z,9.05
2023-02-28T20:35:21.781Z,9.00
2023-02-28T20:37:51.408Z,9.35
2023-02-28T20:40:21.955Z,9.52
2023-02-28T20:42:51.644Z,8.68
2023-02-28T20:45:24.529Z,8.70
2023-02-28T20:47:54.195Z,8.80
2023-02-28T20:50:23.800Z,9.88
2023-02-28T20:52:53.752Z,9.20
2023-02-28T20:55:23.309Z,9.52
2023-02-28T20:57:54.199Z,9.15
2023-02-28T21:00:26.843Z,9.68
2023-02-28T21:02:56.399Z,9.07
2023-02-28T21:05:25.950Z,9.07
2023-02-28T21:07:55.504Z,10.13
2023-02-28T21:10:25.044Z,10.23
2023-02-28T21:12:57.829Z,9.70
2023-02-28T21:15:30.131Z,10.35
2023-02-28T21:17:59.833Z,11.20
2023-02-28T21:20:29.665Z,10.13
2023-02-28T21:22:59.211Z,10.02
2023-02-28T21:25:29.206Z,9.90
2023-02-28T21:27:58.828Z,9.98
2023-02-28T21:30:31.002Z,10.10
2023-02-28T21:33:00.540Z,10.32
2023-02-28T21:35:30.143Z,9.68
2023-02-28T21:37:59.753Z,9.80
2023-02-28T21:40:29.799Z,9.52
2023-02-28T21:42:59.377Z,9.18
2023-02-28T21:45:31.953Z,9.18
2023-02-28T21:48:01.516Z,9.27
2023-02-28T21:50:31.103Z,10.27
2023-02-28T21:53:00.664Z,9.43
2023-02-28T21:55:30.297Z,10.50
2023-02-28T21:58:00.103Z,10.82
2023-02-28T22:00:32.340Z,10.63
2023-02-28T22:03:02.002Z,12.43
2023-02-28T22:05:32.717Z,10.57
2023-02-28T22:08:02.524Z,10.73
2023-02-28T22:10:32.195Z,10.65
2023-02-28T22:13:01.850Z,11.18
2023-02-28T22:15:35.482Z,9.00
2023-02-28T22:18:05.036Z,11.13
2023-02-28T22:20:34.771Z,12.18
2023-02-28T22:23:04.336Z,11.55
2023-02-28T22:25:33.927Z,11.30
2023-02-28T22:28:03.497Z,11.55
2023-02-28T22:30:35.650Z,12.18
2023-02-28T22:33:05.217Z,10.32
2023-02-28T22:35:35.237Z,11.13
2023-02-28T22:38:04.933Z,11.57
2023-02-28T22:40:35.620Z,11.60
2023-02-28T22:43:05.371Z,12.30
2023-02-28T22:45:38.494Z,12.90
2023-02-28T22:48:09.200Z,13.43
2023-02-28T22:50:38.776Z,11.77
2023-02-28T22:53:08.351Z,11.88
2023-02-28T22:55:37.933Z,11.55
2023-02-28T22:58:07.539Z,10.52
2023-02-28T23:00:39.695Z,10.00
2023-02-28T23:03:09.292Z,10.43
2023-02-28T23:05:38.843Z,10.77
2023-02-28T23:08:08.798Z,10.85
2023-02-28T23:10:38.346Z,10.80
2023-02-28T23:13:07.929Z,10.85
2023-02-28T23:15:42.698Z,11.38
2023-02-28T23:18:12.262Z,11.55
2023-02-28T23:20:41.836Z,10.98
2023-02-28T23:23:13.007Z,11.38
2023-02-28T23:25:43.277Z,11.35
2023-02-28T23:28:12.889Z,11.93
2023-02-28T23:30:46.103Z,11.00
2023-02-28T23:33:15.679Z,11.10
2023-02-28T23:35:45.267Z,11.70
2023-02-28T23:38:14.928Z,11.50
2023-02-28T23:40:45.001Z,12.63
2023-02-28T23:43:14.825Z,11.63
2023-02-28T23:45:47.453Z,11.50
2023-02-28T23:48:17.461Z,10.88
2023-02-28T23:50:47.035Z,11.23
2023-02-28T23:53:16.592Z,11.15
2023-02-28T23:55:48.902Z,11.25
2023-02-28T23:58:18.523Z,12.98
